Wautoma, WI

4:29 AM CST on January 23, 2017 (GMT -0600)
Richford | | Change Station

Elev 892 ft 44.03 °N, 89.39 °W | Updated 7 minutes ago

Overcast
Overcast
34.1 °F
Feels Like 34 °F
N
1.0
Wind Variable Wind from West
Gusts 6.0 mph

Today
High -- | Low -- °F
--% Chance of Precip.
Yesterday
High -- | Low -- °F
Precip. -- in
Pressure 29.75 in
Visibility 8.0 miles
Clouds Overcast 400 ft
Windchill 34 °F
Dew Point 34 °F
Humidity 98%
Rainfall 0.00 in
Snow Depth Not available.
7:23 AM 4:55 PM
Waning Crescent, 19% visible
SPECI KY50 231019Z AUTO 30005KT 8SM OVC004 02/01 A2975 RMK AO2
Pressure 29.75 in
Visibility 8.0 miles
Clouds Overcast 400 ft
Windchill 34 °F
Dew Point 34 °F
Humidity 98%
Rainfall 0.00 in
Snow Depth Not available.
7:23 AM 4:55 PM
Waning Crescent, 19% visible
SPECI KY50 231019Z AUTO 30005KT 8SM OVC004 02/01 A2975 RMK AO2

Get Your Daily Forecast Email!

Thanks for signing up!

Be on the lookout for a verification email in your inbox.

You'll start receiving the daily forecast at 8 AM.

×

10-Day Weather Forecast

Almanac

Astronomy

Jan. 23, 2017 Rise Set
Actual Time
Civil Twilight
Nautical Twilight
Astronomical Twilight
Moon
Length of Visible Light
Length of Day
Tomorrow will be .
, % of the Moon is Illuminated

Today's Extremes

State Highs State Lows

Community

WunderPhotos

Upload Photos

1,962,540 photos uploaded!

WunderBlog® & News

Nearby

Air Quality

  Air Quality AQ Index Pollutant
Not available.

Snow Depth

Station Depth Elevation

Earthquake Activity

City Distance Mag. Time & Date
Minimum magnitude displayed is 2.5.

Coastal Water Temperatures

Place Temperature

Stations

Nearby Weather Stations

Station Location Temp. Windchill Dew Point Humidity Wind Precip. Elev Updated Type
                   

Watches & Warnings

There are currently no watches in effect.